Time;durP1;ratioP1;P1;durP2;ratioP2;P2;SDS_P1;SDS_P2;PMS_P1;PMS_P2;Temp;Humidity;BMP_temperature;BMP_pressure;BME280_temperature;BME280_humidity;BME280_pressure;Samples;Min_cycle;Max_cycle;Signal;HPM_P1;HPM_P2
2021/10/31 00:01:57;;;;;;;3.47;1.90;;;16.10;99.90;;;;;;5071153;28;20214;-59
2021/10/31 00:04:24;;;;;;;2.00;1.80;;;16.00;99.90;;;;;;5070413;28;20211;-59
2021/10/31 00:06:50;;;;;;;2.63;1.80;;;16.10;99.90;;;;;;5071067;28;20697;-57
2021/10/31 00:09:17;;;;;;;2.33;1.80;;;16.10;99.90;;;;;;5070994;28;20252;-58
2021/10/31 00:11:44;;;;;;;3.07;1.70;;;16.20;99.90;;;;;;5071259;28;20499;-60
2021/10/31 00:14:11;;;;;;;2.13;1.60;;;16.20;99.90;;;;;;5070889;28;20676;-57
2021/10/31 00:16:39;;;;;;;1.77;1.50;;;16.20;99.90;;;;;;5070998;28;20619;-58
2021/10/31 00:19:06;;;;;;;2.07;1.60;;;16.30;99.90;;;;;;5071215;28;20236;-57
2021/10/31 00:21:33;;;;;;;2.07;1.70;;;16.30;99.90;;;;;;5071262;28;20291;-57
2021/10/31 00:24:00;;;;;;;3.60;1.60;;;16.30;99.90;;;;;;5071016;28;20201;-58
2021/10/31 00:26:27;;;;;;;2.37;1.70;;;16.20;99.90;;;;;;5070908;28;20618;-56
2021/10/31 00:28:53;;;;;;;1.80;1.60;;;16.20;99.90;;;;;;5071482;28;20221;-58
2021/10/31 00:31:20;;;;;;;2.50;1.70;;;16.20;99.90;;;;;;5070619;28;20220;-58
2021/10/31 00:33:48;;;;;;;2.50;1.63;;;16.30;99.90;;;;;;5070735;28;20686;-58
2021/10/31 00:36:15;;;;;;;2.03;1.47;;;16.30;99.90;;;;;;5070951;28;20270;-58
2021/10/31 00:38:42;;;;;;;1.50;1.40;;;16.30;99.90;;;;;;5071180;28;20621;-55
2021/10/31 00:41:09;;;;;;;2.20;1.50;;;16.30;99.90;;;;;;5070677;28;20216;-55
2021/10/31 00:43:36;;;;;;;1.37;1.20;;;16.40;99.90;;;;;;5070338;28;20668;-55
2021/10/31 00:46:02;;;;;;;2.83;1.33;;;16.40;99.90;;;;;;5070724;28;20208;-56
2021/10/31 00:48:29;;;;;;;2.40;1.57;;;16.40;99.90;;;;;;5070370;28;20577;-55
2021/10/31 00:50:57;;;;;;;1.97;1.77;;;16.50;99.90;;;;;;5070833;28;20239;-55
2021/10/31 00:53:24;;;;;;;1.50;1.40;;;16.50;99.90;;;;;;5070941;28;20669;-56
2021/10/31 00:55:51;;;;;;;1.90;1.63;;;16.50;99.90;;;;;;5070743;28;20213;-59
2021/10/31 00:58:18;;;;;;;2.03;1.43;;;16.50;99.90;;;;;;5070364;28;20715;-56
2021/10/31 01:00:47;;;;;;;1.40;1.30;;;16.50;99.90;;;;;;5070932;28;20201;-58
2021/10/31 01:03:14;;;;;;;1.40;1.30;;;16.50;99.90;;;;;;5070854;28;20211;-56
2021/10/31 01:05:46;;;;;;;1.43;1.30;;;16.50;99.90;;;;;;5070815;28;20244;-56
2021/10/31 01:08:38;;;;;;;2.27;1.60;;;16.50;99.90;;;;;;5070646;28;20503;-55
2021/10/31 01:11:22;;;;;;;2.00;1.67;;;16.40;99.90;;;;;;5070439;28;20228;-56
2021/10/31 01:14:14;;;;;;;1.67;1.57;;;16.30;99.90;;;;;;5070497;28;20212;-58
2021/10/31 01:16:52;;;;;;;2.40;1.60;;;16.30;99.90;;;;;;5074479;28;20212;-55
2021/10/31 01:19:43;;;;;;;1.90;1.50;;;16.30;99.90;;;;;;5074113;28;20225;-56
2021/10/31 01:22:21;;;;;;;2.33;1.53;;;16.20;99.90;;;;;;5074331;28;20201;-58
2021/10/31 01:25:07;;;;;;;2.23;1.50;;;16.00;99.90;;;;;;5074082;28;20204;-55
2021/10/31 01:27:56;;;;;;;1.60;1.50;;;15.90;99.90;;;;;;5074013;28;20220;-55
2021/10/31 01:30:34;;;;;;;1.47;1.37;;;15.80;99.90;;;;;;5074141;28;20209;-58
2021/10/31 01:33:11;;;;;;;2.20;1.57;;;15.70;99.90;;;;;;5074217;28;20232;-56
2021/10/31 01:35:54;;;;;;;3.03;1.57;;;15.60;99.90;;;;;;5073918;28;20205;-55
2021/10/31 01:38:32;;;;;;;1.27;1.17;;;15.50;99.90;;;;;;5073742;28;20239;-56
2021/10/31 01:41:07;;;;;;;1.33;1.20;;;15.50;99.90;;;;;;5073799;28;20656;-56
2021/10/31 01:43:41;;;;;;;1.93;1.40;;;15.40;99.90;;;;;;5073516;28;20295;-55
2021/10/31 01:46:14;;;;;;;1.87;1.60;;;15.30;99.90;;;;;;5073727;28;20274;-55
2021/10/31 01:48:52;;;;;;;1.80;1.70;;;15.20;99.90;;;;;;5073652;28;20225;-55
2021/10/31 01:51:23;;;;;;;2.53;1.40;;;15.10;99.90;;;;;;5073744;28;20229;-56
2021/10/31 01:53:57;;;;;;;1.80;1.47;;;14.90;99.90;;;;;;5073850;28;20266;-55
2021/10/31 01:56:27;;;;;;;1.87;1.40;;;14.90;99.90;;;;;;5073609;28;20224;-58
2021/10/31 01:58:59;;;;;;;1.70;1.47;;;14.70;99.90;;;;;;5073284;28;20274;-56
2021/10/31 02:01:30;;;;;;;2.17;1.60;;;14.60;99.90;;;;;;5073876;28;20258;-57
2021/10/31 02:04:01;;;;;;;4.10;1.60;;;14.60;99.90;;;;;;5073242;28;20680;-56
2021/10/31 02:06:30;;;;;;;2.37;1.60;;;14.60;99.90;;;;;;5073826;28;20216;-57
2021/10/31 02:08:57;;;;;;;2.20;1.43;;;14.50;99.90;;;;;;5073594;28;20232;-55
2021/10/31 02:11:26;;;;;;;2.20;1.90;;;14.30;99.90;;;;;;5073610;28;20249;-59
2021/10/31 02:13:55;;;;;;;1.97;1.70;;;14.30;99.90;;;;;;5073691;28;20258;-57
2021/10/31 02:16:23;;;;;;;2.73;1.63;;;14.20;99.90;;;;;;5074125;28;20205;-55
2021/10/31 02:18:51;;;;;;;1.70;1.60;;;14.20;99.90;;;;;;5073704;28;20228;-56
2021/10/31 02:21:21;;;;;;;2.73;2.23;;;14.00;99.90;;;;;;5073430;28;20240;-56
2021/10/31 02:23:51;;;;;;;2.70;2.33;;;13.90;99.90;;;;;;5073230;28;20213;-55
2021/10/31 02:26:18;;;;;;;1.90;1.70;;;13.90;99.90;;;;;;5072844;28;20201;-56
2021/10/31 02:28:54;;;;;;;3.33;1.90;;;13.90;99.90;;;;;;5073455;28;20252;-58
2021/10/31 02:31:21;;;;;;;2.50;1.97;;;13.70;99.90;;;;;;5073137;28;20368;-56
2021/10/31 02:33:48;;;;;;;4.67;3.20;;;13.70;99.90;;;;;;5073111;28;20227;-55
2021/10/31 02:36:15;;;;;;;5.83;4.23;;;13.60;99.90;;;;;;5073131;28;20830;-56
2021/10/31 02:38:42;;;;;;;6.10;3.83;;;13.60;99.90;;;;;;5073011;28;20236;-55
2021/10/31 02:41:11;;;;;;;4.07;3.17;;;13.50;99.90;;;;;;5073026;28;20263;-58
2021/10/31 02:43:38;;;;;;;5.23;2.30;;;13.40;99.90;;;;;;5072726;28;20571;-56
2021/10/31 02:46:05;;;;;;;2.77;2.40;;;13.30;99.90;;;;;;5072862;28;20619;-57
2021/10/31 02:48:32;;;;;;;5.33;2.70;;;13.20;99.90;;;;;;5072496;28;20232;-57
2021/10/31 02:51:03;;;;;;;5.60;3.10;;;13.10;99.90;;;;;;5073291;28;20220;-56
2021/10/31 02:53:37;;;;;;;4.30;2.70;;;12.90;99.90;;;;;;5072393;28;20576;-56
2021/10/31 02:56:14;;;;;;;4.87;3.17;;;12.80;99.90;;;;;;5072544;28;20669;-55
2021/10/31 02:58:46;;;;;;;3.17;2.70;;;12.70;99.90;;;;;;5072348;28;20232;-55
2021/10/31 03:01:14;;;;;;;4.13;3.10;;;12.60;99.90;;;;;;5072374;28;20212;-55
2021/10/31 03:03:41;;;;;;;4.23;3.60;;;12.60;99.90;;;;;;5072731;28;20287;-56
2021/10/31 03:06:09;;;;;;;3.77;3.00;;;12.60;99.90;;;;;;5072506;28;20634;-56
2021/10/31 03:08:35;;;;;;;4.03;3.37;;;12.60;99.90;;;;;;5072266;28;20236;-56
2021/10/31 03:11:07;;;;;;;4.13;3.20;;;12.60;99.90;;;;;;5072683;28;20227;-58
2021/10/31 03:13:35;;;;;;;3.73;3.00;;;12.50;99.90;;;;;;5072129;28;20232;-57
2021/10/31 03:16:03;;;;;;;3.30;2.83;;;12.60;99.90;;;;;;5071973;28;20262;-57
2021/10/31 03:18:30;;;;;;;3.70;2.83;;;12.60;99.90;;;;;;5072127;28;20232;-58
2021/10/31 03:20:56;;;;;;;3.83;3.10;;;12.60;99.90;;;;;;5072200;28;20259;-58
2021/10/31 03:23:23;;;;;;;3.63;2.70;;;12.50;99.90;;;;;;5071909;28;20231;-58
2021/10/31 03:25:50;;;;;;;2.93;2.63;;;12.40;99.90;;;;;;5072503;28;20258;-58
2021/10/31 03:28:16;;;;;;;3.93;2.47;;;12.30;99.90;;;;;;5073997;28;20716;-59
2021/10/31 03:30:44;;;;;;;3.13;2.67;;;12.30;99.90;;;;;;5074507;28;20685;-58
2021/10/31 03:33:12;;;;;;;3.63;2.80;;;12.30;99.90;;;;;;5073333;28;20224;-58
2021/10/31 03:35:39;;;;;;;6.17;2.60;;;12.20;99.90;;;;;;5072574;28;20229;-58
2021/10/31 03:38:06;;;;;;;3.03;2.70;;;12.10;99.90;;;;;;5071485;28;20237;-57
2021/10/31 03:40:33;;;;;;;5.50;2.87;;;12.10;99.90;;;;;;5072015;28;20215;-59
2021/10/31 03:42:59;;;;;;;5.93;2.80;;;12.10;99.90;;;;;;5071979;28;20208;-58
2021/10/31 03:45:26;;;;;;;3.90;3.13;;;12.10;99.90;;;;;;5072265;28;20209;-59
2021/10/31 03:47:53;;;;;;;7.13;3.20;;;12.10;99.90;;;;;;5071805;28;20224;-59
2021/10/31 03:50:22;;;;;;;3.50;3.20;;;12.10;99.90;;;;;;5071932;28;20582;-58
2021/10/31 03:52:50;;;;;;;4.93;2.80;;;12.10;99.90;;;;;;5071591;28;20266;-59
2021/10/31 03:55:18;;;;;;;4.93;3.87;;;12.10;99.90;;;;;;5071205;28;20205;-58
2021/10/31 03:57:45;;;;;;;4.33;3.90;;;12.10;99.90;;;;;;5071120;28;20208;-58
2021/10/31 04:00:15;;;;;;;6.10;4.70;;;12.00;99.90;;;;;;5071563;28;20616;-59
2021/10/31 04:02:43;;;;;;;6.43;3.73;;;12.00;99.90;;;;;;5071773;28;20205;-58
2021/10/31 04:05:10;;;;;;;5.63;4.00;;;11.90;99.90;;;;;;5071181;28;20217;-58
2021/10/31 04:07:39;;;;;;;5.70;3.90;;;11.80;99.90;;;;;;5070943;28;20605;-58
2021/10/31 04:10:07;;;;;;;5.43;3.57;;;11.80;99.90;;;;;;5070958;28;20231;-59
2021/10/31 04:12:34;;;;;;;4.90;3.63;;;11.70;99.90;;;;;;5071154;28;20239;-59
2021/10/31 04:15:01;;;;;;;6.20;3.50;;;11.60;99.90;;;;;;5071127;28;20207;-58
2021/10/31 04:17:27;;;;;;;6.27;3.60;;;11.50;99.90;;;;;;5071005;28;20215;-58
2021/10/31 04:19:54;;;;;;;5.27;3.67;;;11.40;99.90;;;;;;5070777;28;20229;-59
2021/10/31 04:22:21;;;;;;;4.43;3.20;;;11.30;99.90;;;;;;5071011;28;20201;-58
2021/10/31 04:24:49;;;;;;;4.17;3.30;;;11.20;99.90;;;;;;5071304;28;20212;-59
2021/10/31 04:27:15;;;;;;;4.87;3.30;;;11.20;99.90;;;;;;5071100;28;20232;-59
2021/10/31 04:29:42;;;;;;;5.00;3.03;;;11.20;99.90;;;;;;5070854;28;20311;-58
2021/10/31 04:32:09;;;;;;;5.70;2.80;;;11.20;99.90;;;;;;5070729;28;20727;-58
2021/10/31 04:34:35;;;;;;;4.83;3.33;;;11.20;99.90;;;;;;5070759;28;20201;-59
2021/10/31 04:37:03;;;;;;;4.23;3.27;;;11.10;99.90;;;;;;5070795;28;20205;-58
2021/10/31 04:39:30;;;;;;;5.83;3.03;;;11.10;99.90;;;;;;5070521;28;20237;-59
2021/10/31 04:42:03;;;;;;;4.63;3.43;;;11.20;99.90;;;;;;5070961;28;20580;-58
2021/10/31 04:44:30;;;;;;;4.30;2.90;;;11.20;99.90;;;;;;5070827;28;20205;-58
2021/10/31 04:46:57;;;;;;;5.17;3.37;;;11.20;99.90;;;;;;5070890;28;20207;-57
2021/10/31 04:49:24;;;;;;;7.83;5.43;;;11.30;99.90;;;;;;5070138;28;20228;-59
2021/10/31 04:51:50;;;;;;;8.63;5.97;;;11.40;99.90;;;;;;5071137;28;20209;-59
2021/10/31 04:54:17;;;;;;;4.73;3.73;;;11.40;99.90;;;;;;5071266;28;20212;-57
2021/10/31 04:56:44;;;;;;;6.47;4.63;;;11.50;99.90;;;;;;5071354;28;20201;-59
2021/10/31 04:59:12;;;;;;;5.63;4.60;;;11.50;99.90;;;;;;5071029;28;20229;-59
2021/10/31 05:01:39;;;;;;;6.10;4.50;;;11.50;99.90;;;;;;5070698;28;20208;-59
2021/10/31 05:04:06;;;;;;;3.37;3.07;;;11.60;99.90;;;;;;5070315;28;20208;-58
2021/10/31 05:06:32;;;;;;;4.47;3.53;;;11.50;99.90;;;;;;5070508;28;20209;-59
2021/10/31 05:08:59;;;;;;;4.50;3.13;;;11.60;99.90;;;;;;5070443;28;20270;-59
2021/10/31 05:11:26;;;;;;;5.47;3.37;;;11.50;99.90;;;;;;5070507;28;20288;-58
2021/10/31 05:13:52;;;;;;;4.10;2.90;;;11.60;99.90;;;;;;5070361;28;20221;-59
2021/10/31 05:16:20;;;;;;;4.93;3.23;;;11.60;99.90;;;;;;5070577;28;20205;-59
2021/10/31 05:18:47;;;;;;;3.70;3.10;;;11.70;99.90;;;;;;5070192;28;20430;-59
2021/10/31 05:21:14;;;;;;;5.10;3.70;;;11.70;99.90;;;;;;5070632;28;20211;-58
2021/10/31 05:23:40;;;;;;;3.90;3.30;;;11.70;99.90;;;;;;5070735;28;20575;-58
2021/10/31 05:26:07;;;;;;;4.17;3.47;;;11.70;99.90;;;;;;5071012;28;20205;-59
2021/10/31 05:28:34;;;;;;;4.30;3.60;;;11.70;99.90;;;;;;5070201;28;20252;-58
2021/10/31 05:31:01;;;;;;;6.37;3.30;;;11.70;99.90;;;;;;5070558;28;20213;-59
2021/10/31 05:33:29;;;;;;;4.57;3.90;;;11.80;99.90;;;;;;5069978;28;20235;-58
2021/10/31 05:35:56;;;;;;;5.20;4.07;;;11.80;99.90;;;;;;5070508;28;20236;-58
2021/10/31 05:38:22;;;;;;;5.80;3.67;;;11.80;99.90;;;;;;5070245;28;20233;-58
2021/10/31 05:40:50;;;;;;;6.00;4.00;;;11.80;99.90;;;;;;5070819;28;20714;-60
2021/10/31 05:43:18;;;;;;;3.93;3.50;;;11.80;99.90;;;;;;5070486;28;20205;-54
2021/10/31 05:45:46;;;;;;;6.17;3.27;;;11.70;99.90;;;;;;5070202;28;20212;-55
2021/10/31 05:48:13;;;;;;;3.77;3.10;;;11.70;99.90;;;;;;5069930;28;20225;-56
2021/10/31 05:50:41;;;;;;;3.70;3.40;;;11.60;99.90;;;;;;5070385;28;20204;-55
2021/10/31 05:53:08;;;;;;;4.73;3.03;;;11.50;99.90;;;;;;5070353;28;20232;-55
2021/10/31 05:55:35;;;;;;;4.50;3.43;;;11.40;99.90;;;;;;5070040;28;20208;-56
2021/10/31 05:58:02;;;;;;;6.00;4.27;;;11.30;99.90;;;;;;5071511;28;20225;-56
2021/10/31 06:00:29;;;;;;;16.97;12.00;;;11.30;99.90;;;;;;5070848;28;20205;-58
2021/10/31 06:02:55;;;;;;;11.67;8.40;;;11.30;99.90;;;;;;5072676;28;20601;-55
2021/10/31 06:05:22;;;;;;;4.33;3.53;;;11.20;99.90;;;;;;5073873;28;20221;-55
2021/10/31 06:07:50;;;;;;;5.50;3.53;;;11.20;99.90;;;;;;5074082;28;20212;-57
2021/10/31 06:10:17;;;;;;;6.00;4.83;;;11.10;99.90;;;;;;5073777;28;20569;-57
2021/10/31 06:12:46;;;;;;;9.60;4.60;;;11.10;99.90;;;;;;5073866;28;20229;-56
2021/10/31 06:15:13;;;;;;;6.17;3.37;;;11.10;99.90;;;;;;5073460;28;20688;-57
2021/10/31 06:17:41;;;;;;;10.30;7.10;;;11.20;99.90;;;;;;5073978;28;20201;-55
2021/10/31 06:20:09;;;;;;;4.97;3.70;;;11.20;99.90;;;;;;5073918;28;20216;-55
2021/10/31 06:22:35;;;;;;;3.57;3.10;;;11.30;99.90;;;;;;5073813;28;20205;-55
2021/10/31 06:25:04;;;;;;;4.27;3.43;;;11.40;99.90;;;;;;5073633;28;20240;-56
2021/10/31 06:27:31;;;;;;;5.53;4.00;;;11.50;99.90;;;;;;5073138;28;20212;-56
2021/10/31 06:29:58;;;;;;;5.03;4.47;;;11.60;99.90;;;;;;5073439;28;20208;-55
2021/10/31 06:32:24;;;;;;;4.10;3.40;;;11.60;99.90;;;;;;5073444;28;20619;-57
2021/10/31 06:34:51;;;;;;;11.87;9.37;;;11.70;99.90;;;;;;5073200;28;20212;-55
2021/10/31 06:37:18;;;;;;;6.57;5.87;;;11.80;99.90;;;;;;5073206;28;20213;-55
2021/10/31 06:39:45;;;;;;;6.00;3.77;;;12.00;99.90;;;;;;5112650;22;20725;-60
2021/10/31 06:42:13;;;;;;;4.67;3.30;;;12.20;99.90;;;;;;5093227;28;20204;-61
2021/10/31 06:44:40;;;;;;;3.20;2.90;;;12.10;99.90;;;;;;5093248;28;20249;-61
2021/10/31 06:47:06;;;;;;;4.93;3.13;;;12.20;99.90;;;;;;5093322;28;20204;-61
2021/10/31 06:49:33;;;;;;;11.40;8.00;;;12.50;99.90;;;;;;5093274;28;20369;-60
2021/10/31 06:52:00;;;;;;;3.57;2.70;;;13.00;99.90;;;;;;5093114;28;20207;-60
2021/10/31 06:54:28;;;;;;;5.67;3.00;;;13.40;99.90;;;;;;5092966;28;20776;-59
2021/10/31 06:56:54;;;;;;;4.70;3.97;;;13.50;99.90;;;;;;5093285;28;20302;-60
2021/10/31 06:59:22;;;;;;;4.73;3.17;;;13.60;99.90;;;;;;5092960;28;20520;-60
2021/10/31 07:01:49;;;;;;;6.03;3.33;;;13.60;99.90;;;;;;5092958;28;20423;-61
2021/10/31 07:04:16;;;;;;;4.60;3.30;;;13.60;99.90;;;;;;5092723;28;20208;-60
2021/10/31 07:06:43;;;;;;;3.97;3.57;;;13.40;99.90;;;;;;5092409;28;20215;-61
2021/10/31 07:09:09;;;;;;;4.27;3.87;;;13.40;99.90;;;;;;5092319;28;20224;-61
2021/10/31 07:11:36;;;;;;;4.13;3.73;;;13.50;99.90;;;;;;5092843;28;20211;-60
2021/10/31 07:14:03;;;;;;;4.40;3.60;;;13.50;99.90;;;;;;5091942;28;20721;-61
2021/10/31 07:16:31;;;;;;;5.73;3.83;;;13.50;99.90;;;;;;5093080;28;20228;-61
2021/10/31 07:18:58;;;;;;;4.10;3.57;;;13.40;99.90;;;;;;5092342;28;20800;-61
2021/10/31 07:21:25;;;;;;;4.07;3.10;;;13.50;99.90;;;;;;5092278;28;20215;-60
2021/10/31 07:23:52;;;;;;;4.00;3.33;;;13.50;99.90;;;;;;5092035;28;20200;-60
2021/10/31 07:26:18;;;;;;;3.33;2.77;;;13.50;99.90;;;;;;5092579;28;20208;-60
2021/10/31 07:28:45;;;;;;;5.77;4.13;;;13.60;99.90;;;;;;5092181;28;20236;-61
2021/10/31 07:31:16;;;;;;;3.67;2.67;;;13.60;99.90;;;;;;5092089;28;20213;-60
2021/10/31 07:33:44;;;;;;;3.70;3.00;;;13.60;99.90;;;;;;5091765;28;20699;-62
2021/10/31 07:36:11;;;;;;;3.60;2.90;;;13.60;99.90;;;;;;5091957;28;20204;-61
2021/10/31 07:38:40;;;;;;;4.60;3.70;;;13.60;99.90;;;;;;5092028;28;20232;-61
2021/10/31 07:41:07;;;;;;;3.63;3.10;;;13.70;99.90;;;;;;5092080;28;20203;-62
2021/10/31 07:43:34;;;;;;;3.90;3.27;;;13.80;99.90;;;;;;5091868;28;20678;-61
2021/10/31 07:46:00;;;;;;;3.13;2.83;;;14.00;99.90;;;;;;5091960;28;20216;-60
2021/10/31 07:48:28;;;;;;;3.47;3.10;;;14.10;99.90;;;;;;5091714;28;20281;-61
2021/10/31 07:50:56;;;;;;;5.70;3.20;;;14.20;99.90;;;;;;5091728;28;20675;-62
2021/10/31 07:53:23;;;;;;;3.23;2.93;;;14.20;99.90;;;;;;5091868;28;20227;-61
2021/10/31 07:55:52;;;;;;;7.50;3.17;;;14.20;99.90;;;;;;5091925;28;20204;-61
2021/10/31 07:58:21;;;;;;;4.47;3.30;;;14.10;99.90;;;;;;5091607;28;20311;-61
2021/10/31 08:00:49;;;;;;;3.40;2.90;;;14.00;99.90;;;;;;5091854;28;20451;-61
2021/10/31 08:03:15;;;;;;;3.70;3.00;;;14.00;99.90;;;;;;5092187;28;20200;-61
2021/10/31 08:05:43;;;;;;;3.90;3.43;;;14.00;99.90;;;;;;5091596;28;20663;-61
2021/10/31 08:08:16;;;;;;;3.83;3.40;;;14.00;99.90;;;;;;5091619;28;20204;-61
2021/10/31 08:10:45;;;;;;;3.50;3.03;;;14.10;99.90;;;;;;5091962;28;20212;-61
2021/10/31 08:13:19;;;;;;;4.70;3.67;;;14.40;99.90;;;;;;5091345;28;20204;-61
2021/10/31 08:15:46;;;;;;;9.10;4.27;;;14.50;99.90;;;;;;5091366;28;20207;-61
2021/10/31 08:18:13;;;;;;;3.43;3.10;;;14.70;99.90;;;;;;5091413;28;20232;-60
2021/10/31 08:20:39;;;;;;;5.73;3.30;;;14.80;99.90;;;;;;5091370;28;20230;-60
2021/10/31 08:23:07;;;;;;;3.63;3.10;;;14.90;99.90;;;;;;5091323;28;20695;-61
2021/10/31 08:25:36;;;;;;;3.93;3.10;;;14.90;99.90;;;;;;5090585;28;20215;-60
2021/10/31 08:28:05;;;;;;;2.73;2.43;;;14.90;99.90;;;;;;5091074;28;20205;-60
2021/10/31 08:30:33;;;;;;;3.40;2.67;;;15.00;99.90;;;;;;5091193;28;20211;-61
2021/10/31 08:33:06;;;;;;;3.03;2.43;;;15.10;99.90;;;;;;5091224;28;20335;-62
2021/10/31 08:35:34;;;;;;;4.10;2.83;;;15.20;99.90;;;;;;5091177;28;20204;-61
2021/10/31 08:38:00;;;;;;;3.07;2.77;;;15.40;99.90;;;;;;5090877;28;20249;-61
2021/10/31 08:40:27;;;;;;;3.50;3.20;;;15.50;99.90;;;;;;5091178;28;20215;-61
2021/10/31 08:42:55;;;;;;;3.07;2.57;;;15.70;99.90;;;;;;5090847;28;20707;-65
2021/10/31 08:45:22;;;;;;;3.23;2.93;;;15.70;99.90;;;;;;5090967;28;20208;-62
2021/10/31 08:47:49;;;;;;;3.90;2.80;;;15.70;99.90;;;;;;5091009;28;20204;-61
2021/10/31 08:50:15;;;;;;;8.40;2.90;;;15.60;99.90;;;;;;5091162;28;20632;-63
2021/10/31 08:52:43;;;;;;;3.07;2.47;;;15.60;99.90;;;;;;5091027;28;20298;-62
2021/10/31 08:55:10;;;;;;;2.50;1.97;;;15.60;99.90;;;;;;5091028;28;20320;-61
2021/10/31 08:57:36;;;;;;;2.57;2.17;;;15.60;99.90;;;;;;5090762;28;20545;-62
2021/10/31 09:00:06;;;;;;;3.70;2.53;;;15.60;99.90;;;;;;5091259;28;20228;-58
2021/10/31 09:02:35;;;;;;;2.80;2.20;;;15.80;99.90;;;;;;5090918;28;20211;-62
2021/10/31 09:05:01;;;;;;;2.43;2.23;;;16.00;99.90;;;;;;5090602;28;20204;-59
2021/10/31 09:07:28;;;;;;;3.30;2.13;;;16.30;99.90;;;;;;5090840;28;20204;-67
2021/10/31 09:09:55;;;;;;;3.30;2.73;;;16.20;99.90;;;;;;5090700;28;20232;-71
2021/10/31 09:12:21;;;;;;;4.00;3.60;;;16.20;99.90;;;;;;5090983;28;20208;-67
2021/10/31 09:14:48;;;;;;;3.57;3.07;;;16.40;99.90;;;;;;5090715;28;20231;-58
2021/10/31 09:17:16;;;;;;;4.07;2.37;;;16.60;99.90;;;;;;5091073;28;20695;-58
2021/10/31 09:19:43;;;;;;;3.90;3.30;;;16.70;99.90;;;;;;5090917;28;20232;-58
2021/10/31 09:22:10;;;;;;;4.13;3.60;;;16.70;99.90;;;;;;5091254;28;20204;-61
2021/10/31 09:24:36;;;;;;;2.73;2.50;;;16.80;99.90;;;;;;5090821;28;20232;-59
2021/10/31 09:27:04;;;;;;;4.68;3.38;;;17.00;99.90;;;;;;5091216;28;20199;-59
2021/10/31 09:29:31;;;;;;;3.97;2.97;;;17.10;99.90;;;;;;5090711;28;20762;-59
2021/10/31 09:31:57;;;;;;;3.58;2.90;;;17.30;99.90;;;;;;5090743;28;20262;-59
2021/10/31 09:34:28;;;;;;;3.42;3.05;;;17.40;99.90;;;;;;5090332;28;20223;-59
2021/10/31 09:36:54;;;;;;;3.30;3.00;;;17.70;99.90;;;;;;5093454;28;20215;-61
2021/10/31 09:39:21;;;;;;;4.15;3.05;;;17.80;99.90;;;;;;5094528;28;20250;-60
2021/10/31 09:41:50;;;;;;;5.32;4.53;;;17.80;99.90;;;;;;5094696;28;20205;-59
2021/10/31 09:44:20;;;;;;;4.32;3.35;;;18.00;99.90;;;;;;5094259;28;20219;-59
2021/10/31 09:46:47;;;;;;;8.27;3.33;;;18.10;99.90;;;;;;5093947;28;20668;-60
2021/10/31 09:49:14;;;;;;;3.35;3.03;;;18.20;99.90;;;;;;5093871;28;20228;-59
2021/10/31 09:51:48;;;;;;;4.53;3.45;;;18.10;99.90;;;;;;5093970;28;20207;-60
2021/10/31 09:54:15;;;;;;;4.75;3.30;;;17.80;99.90;;;;;;5094183;28;20204;-59
2021/10/31 09:56:43;;;;;;;3.97;3.15;;;17.60;99.90;;;;;;5094136;28;20211;-59
2021/10/31 09:59:12;;;;;;;4.05;3.15;;;17.50;99.90;;;;;;5093690;28;20224;-60
2021/10/31 10:01:58;;;;;;;3.40;3.10;;;17.50;99.90;;;;;;5094086;28;20208;-60
2021/10/31 10:04:26;;;;;;;3.60;3.00;;;17.50;99.90;;;;;;5093594;28;20253;-58
2021/10/31 10:06:57;;;;;;;4.57;3.30;;;17.40;99.90;;;;;;5093965;28;20200;-59
2021/10/31 10:09:24;;;;;;;3.78;2.92;;;17.40;99.90;;;;;;5093833;28;20239;-59
2021/10/31 10:11:51;;;;;;;14.77;9.48;;;17.50;99.90;;;;;;5093748;28;20209;-59
2021/10/31 10:14:23;;;;;;;4.25;3.08;;;17.70;99.90;;;;;;5094244;28;20241;-59
2021/10/31 10:16:55;;;;;;;3.17;2.88;;;17.80;99.90;;;;;;5093968;28;20247;-59
2021/10/31 10:19:25;;;;;;;3.65;3.10;;;18.00;99.90;;;;;;5093788;28;20231;-59
2021/10/31 10:21:55;;;;;;;4.43;3.40;;;18.30;99.90;;;;;;5093990;28;20200;-59
2021/10/31 10:24:23;;;;;;;3.28;2.80;;;18.50;99.90;;;;;;5093747;28;20218;-59
2021/10/31 10:26:51;;;;;;;6.63;5.22;;;18.60;99.90;;;;;;5093706;28;20671;-59
2021/10/31 10:29:20;;;;;;;4.10;3.70;;;18.70;99.90;;;;;;5093256;28;20730;-59
2021/10/31 10:31:50;;;;;;;4.78;3.00;;;19.00;99.90;;;;;;5093503;28;20212;-59
2021/10/31 10:34:30;;;;;;;3.88;3.28;;;19.10;99.90;;;;;;5093494;28;20245;-59
2021/10/31 10:37:01;;;;;;;4.53;3.00;;;19.10;99.90;;;;;;5093333;28;20671;-63
2021/10/31 10:39:33;;;;;;;3.25;2.70;;;19.10;99.90;;;;;;5092958;28;20654;-64
2021/10/31 10:42:00;;;;;;;3.88;2.97;;;19.20;99.90;;;;;;5093207;28;20226;-65
2021/10/31 10:44:29;;;;;;;3.13;2.83;;;19.20;99.90;;;;;;5093127;28;20224;-64
2021/10/31 10:46:59;;;;;;;3.50;2.65;;;19.20;99.90;;;;;;5092725;28;20204;-64
2021/10/31 10:49:27;;;;;;;3.88;2.85;;;19.30;99.90;;;;;;5092742;28;20314;-65
2021/10/31 10:52:19;;;;;;;2.47;2.17;;;19.40;99.90;;;;;;5093166;28;20208;-64
2021/10/31 10:55:14;;;;;;;2.78;2.22;;;19.50;99.90;;;;;;5092878;28;20650;-64
2021/10/31 10:57:43;;;;;;;3.35;1.90;;;19.50;99.90;;;;;;5057458;28;20204;-64
2021/10/31 11:00:14;;;;;;;2.33;2.03;;;19.50;99.90;;;;;;5092762;28;20224;-64
2021/10/31 11:02:42;;;;;;;2.13;1.92;;;19.70;99.90;;;;;;5092782;28;20319;-64
2021/10/31 11:05:11;;;;;;;2.22;1.98;;;19.90;99.90;;;;;;5092691;28;20223;-64
2021/10/31 11:07:43;;;;;;;3.17;2.08;;;20.10;99.90;;;;;;5092975;28;20598;-64
2021/10/31 11:10:15;;;;;;;2.70;2.08;;;20.20;99.90;;;;;;5090435;28;20232;-68
2021/10/31 11:12:43;;;;;;;3.15;1.70;;;20.40;99.90;;;;;;5092330;28;20465;-69
2021/10/31 11:15:12;;;;;;;2.20;1.80;;;20.50;99.90;;;;;;5092586;28;20825;-63
2021/10/31 11:17:41;;;;;;;3.20;2.03;;;20.70;99.90;;;;;;5092859;28;20208;-65
2021/10/31 11:20:11;;;;;;;2.90;2.03;;;20.70;99.90;;;;;;5093971;28;20228;-65
2021/10/31 11:22:42;;;;;;;3.38;2.83;;;20.80;99.90;;;;;;5093754;28;20688;-65
2021/10/31 11:25:11;;;;;;;3.78;2.50;;;21.00;99.90;;;;;;5093810;28;20224;-63
2021/10/31 11:27:38;;;;;;;2.28;1.83;;;21.30;99.90;;;;;;5094035;28;20295;-63
2021/10/31 11:30:07;;;;;;;1.95;1.70;;;21.50;99.90;;;;;;5091953;28;20227;-63
2021/10/31 11:32:35;;;;;;;2.47;2.28;;;21.60;99.90;;;;;;5092083;28;20204;-64
2021/10/31 11:35:02;;;;;;;2.70;2.25;;;21.70;99.90;;;;;;5092046;28;20197;-64
2021/10/31 11:37:33;;;;;;;2.28;1.52;;;21.80;99.90;;;;;;5091918;28;20216;-63
2021/10/31 11:40:04;;;;;;;2.55;1.60;;;21.70;99.90;;;;;;5091503;28;20239;-64
2021/10/31 11:42:37;;;;;;;1.85;1.60;;;21.60;99.90;;;;;;5092041;28;20219;-65
2021/10/31 11:45:08;;;;;;;3.17;2.55;;;21.40;99.90;;;;;;5091786;28;20220;-66
2021/10/31 11:47:36;;;;;;;6.43;5.82;;;21.50;99.90;;;;;;5091634;28;20208;-66
2021/10/31 11:50:10;;;;;;;2.65;1.90;;;21.50;99.90;;;;;;5091491;28;20269;-66
2021/10/31 11:52:48;;;;;;;3.17;1.80;;;21.50;99.90;;;;;;5091240;28;20215;-63
2021/10/31 11:59:01;;;;;;;3.05;1.70;;;21.60;99.90;;;;;;5055346;28;20367;-66
2021/10/31 12:01:40;;;;;;;1.98;1.40;;;21.80;99.10;;;;;;5071568;28;20243;-66
2021/10/31 12:04:10;;;;;;;2.38;1.30;;;21.80;97.10;;;;;;5070991;28;20596;-65
2021/10/31 12:06:46;;;;;;;1.98;1.35;;;21.80;97.20;;;;;;5071184;28;20201;-64
2021/10/31 12:09:27;;;;;;;2.30;1.65;;;21.80;96.30;;;;;;5071368;28;20231;-65
2021/10/31 12:12:10;;;;;;;1.98;1.60;;;21.90;95.40;;;;;;5071337;28;20200;-67
2021/10/31 12:14:59;;;;;;;2.08;1.55;;;22.00;95.80;;;;;;5070988;28;20585;-64
2021/10/31 12:17:28;;;;;;;3.72;1.50;;;22.10;95.40;;;;;;5063871;28;20208;-65
2021/10/31 12:19:56;;;;;;;1.65;1.30;;;22.20;95.20;;;;;;5071705;28;20378;-65
2021/10/31 12:22:35;;;;;;;2.88;1.70;;;22.30;94.50;;;;;;5071385;28;20208;-68
2021/10/31 12:25:05;;;;;;;2.67;2.28;;;22.40;93.70;;;;;;5070754;28;20228;-64
2021/10/31 12:27:44;;;;;;;1.90;1.23;;;22.30;93.50;;;;;;5070835;28;20222;-66
2021/10/31 12:30:43;;;;;;;2.42;1.60;;;22.20;93.20;;;;;;5071794;28;20856;-66
2021/10/31 12:33:15;;;;;;;2.00;1.30;;;22.20;93.30;;;;;;5049959;28;20271;-66
2021/10/31 12:35:44;;;;;;;1.65;1.30;;;22.20;92.50;;;;;;5070250;28;20236;-64
2021/10/31 12:40:37;;;;;;;1.17;1.08;;;22.00;92.50;;;;;;5111195;22;20311;-61
2021/10/31 12:43:07;;;;;;;1.20;1.10;;;22.00;92.60;;;;;;5091324;28;20200;-58
2021/10/31 12:45:34;;;;;;;3.05;1.60;;;22.10;91.80;;;;;;5091289;28;20234;-63
2021/10/31 12:48:09;;;;;;;1.55;1.30;;;22.00;92.00;;;;;;5091140;28;20246;-58
2021/10/31 12:50:37;;;;;;;2.50;1.27;;;22.00;92.30;;;;;;5091009;28;20235;-56
2021/10/31 12:53:08;;;;;;;2.20;1.38;;;22.20;91.70;;;;;;5090041;28;20424;-58
2021/10/31 12:55:36;;;;;;;2.80;2.20;;;22.30;91.20;;;;;;5091151;28;20689;-56
2021/10/31 12:58:06;;;;;;;3.90;1.58;;;22.40;90.90;;;;;;5091165;28;20208;-56
2021/10/31 13:00:35;;;;;;;2.30;1.40;;;22.40;90.30;;;;;;5090897;28;20220;-58
2021/10/31 13:03:04;;;;;;;1.80;1.00;;;22.30;90.10;;;;;;5091151;28;20212;-57